Time;durP1;ratioP1;P1;durP2;ratioP2;P2;SDS_P1;SDS_P2;PMS_P1;PMS_P2;Temp;Humidity;BMP_temperature;BMP_pressure;BME280_temperature;BME280_humidity;BME280_pressure;Samples;Min_cycle;Max_cycle;Signal;HPM_P1;HPM_P2
2023/12/28 00:01:45;;;;;;;15.73;8.43;;;2.20;74.30;;;;;;5067199;28;20043;-72
2023/12/28 00:04:11;;;;;;;11.40;5.93;;;2.30;73.80;;;;;;5072417;28;20037;-71
2023/12/28 00:06:37;;;;;;;13.10;6.68;;;2.20;73.50;;;;;;5070443;28;20048;-71
2023/12/28 00:09:04;;;;;;;19.85;5.93;;;2.10;73.40;;;;;;5070881;28;20049;-73
2023/12/28 00:11:30;;;;;;;10.02;5.65;;;2.10;73.00;;;;;;5068794;28;20498;-73
2023/12/28 00:13:56;;;;;;;15.98;8.43;;;2.10;73.20;;;;;;5070582;28;20098;-72
2023/12/28 00:16:22;;;;;;;11.57;7.60;;;2.10;73.00;;;;;;5071697;28;20033;-72
2023/12/28 00:18:48;;;;;;;17.40;6.35;;;2.10;73.10;;;;;;5076252;28;20040;-72
2023/12/28 00:21:14;;;;;;;10.75;7.50;;;2.10;73.10;;;;;;5071795;28;20079;-73
2023/12/28 00:23:40;;;;;;;16.30;7.20;;;2.00;73.40;;;;;;5075932;28;20092;-73
2023/12/28 00:26:06;;;;;;;9.93;7.38;;;2.00;73.20;;;;;;5075952;28;20047;-71
2023/12/28 00:28:32;;;;;;;16.35;9.43;;;2.10;73.30;;;;;;5075281;28;20044;-72
2023/12/28 00:30:58;;;;;;;19.58;9.57;;;2.00;73.30;;;;;;5072811;28;20032;-72
2023/12/28 00:33:24;;;;;;;14.05;10.20;;;2.00;73.50;;;;;;5075748;28;20074;-72
2023/12/28 00:35:50;;;;;;;9.60;7.53;;;2.00;73.60;;;;;;5074258;28;20036;-73
2023/12/28 00:38:16;;;;;;;13.50;6.90;;;1.90;73.90;;;;;;5073702;28;20578;-72
2023/12/28 00:40:42;;;;;;;8.98;5.15;;;1.90;74.00;;;;;;5073492;28;20051;-73
2023/12/28 00:43:08;;;;;;;6.88;4.40;;;1.90;73.80;;;;;;5075594;28;20047;-72
2023/12/28 00:45:34;;;;;;;8.98;6.20;;;1.90;73.80;;;;;;5075275;28;20032;-71
2023/12/28 00:48:00;;;;;;;10.00;6.38;;;1.90;74.00;;;;;;5071734;28;20033;-72
2023/12/28 00:53:12;;;;;;;14.07;5.93;;;1.80;74.40;;;;;;5074072;28;20393;-72
2023/12/28 00:55:38;;;;;;;9.60;4.43;;;1.80;74.30;;;;;;5073983;28;20103;-71
2023/12/28 00:58:04;;;;;;;15.00;9.32;;;1.70;74.30;;;;;;5073190;28;20036;-72
2023/12/28 01:00:30;;;;;;;16.52;9.85;;;1.70;74.30;;;;;;5073228;28;20054;-71
2023/12/28 01:02:56;;;;;;;20.55;8.48;;;1.70;74.30;;;;;;5075181;28;20032;-72
2023/12/28 01:05:25;;;;;;;15.43;7.63;;;1.70;74.00;;;;;;5075005;28;20036;-72
2023/12/28 01:07:52;;;;;;;21.58;5.93;;;1.60;73.30;;;;;;5072466;28;20051;-72
2023/12/28 01:10:18;;;;;;;16.45;9.32;;;1.50;72.50;;;;;;5074445;28;20068;-72
2023/12/28 01:12:44;;;;;;;9.35;6.00;;;1.50;73.20;;;;;;5073588;28;20033;-73
2023/12/28 01:15:10;;;;;;;;;;;1.40;72.80;;;;;;5075019;28;20037;-72
2023/12/28 01:17:37;;;;;;;35.65;9.65;;;1.40;72.70;;;;;;5073247;28;19954;-72
2023/12/28 01:20:04;;;;;;;14.13;7.50;;;1.40;72.40;;;;;;5073175;28;20040;-73
2023/12/28 01:22:30;;;;;;;16.88;9.25;;;1.30;72.20;;;;;;5073526;28;20031;-72
2023/12/28 01:24:56;;;;;;;12.48;9.05;;;1.30;72.50;;;;;;5072434;28;20033;-72
2023/12/28 01:27:22;;;;;;;10.50;6.85;;;1.30;72.50;;;;;;5074467;28;20040;-72
2023/12/28 01:29:48;;;;;;;8.77;6.70;;;1.30;72.50;;;;;;5074486;28;20055;-72
2023/12/28 01:32:15;;;;;;;10.90;7.65;;;1.20;72.30;;;;;;5072949;28;20040;-72
2023/12/28 01:34:42;;;;;;;18.42;10.13;;;1.20;72.30;;;;;;5071724;28;20417;-72
2023/12/28 01:37:08;;;;;;;15.20;9.10;;;1.20;72.50;;;;;;5073380;28;20094;-73
2023/12/28 01:39:34;;;;;;;15.32;6.18;;;1.20;72.40;;;;;;5073367;28;20093;-72
2023/12/28 01:42:00;;;;;;;13.40;6.85;;;1.20;72.10;;;;;;5074243;28;20520;-71
2023/12/28 01:44:26;;;;;;;24.42;7.63;;;1.20;72.10;;;;;;5070640;28;20041;-72
2023/12/28 01:46:53;;;;;;;16.80;7.88;;;1.20;72.20;;;;;;5074440;28;20450;-72
2023/12/28 01:49:19;;;;;;;10.95;7.07;;;1.10;71.50;;;;;;5073069;28;20047;-72
2023/12/28 01:51:45;;;;;;;13.38;6.45;;;1.10;72.40;;;;;;5072312;28;20041;-72
2023/12/28 01:54:12;;;;;;;21.75;9.80;;;1.10;71.50;;;;;;5070191;28;20048;-72
2023/12/28 01:56:38;;;;;;;9.70;4.68;;;1.10;72.40;;;;;;5074035;28;20032;-72
2023/12/28 01:59:04;;;;;;;16.52;6.70;;;1.00;71.70;;;;;;5072973;28;20044;-72
2023/12/28 02:01:30;;;;;;;14.27;5.35;;;1.00;71.70;;;;;;5072046;28;20448;-73
2023/12/28 02:03:57;;;;;;;9.48;6.10;;;1.10;72.40;;;;;;5071606;28;20371;-72
2023/12/28 02:06:24;;;;;;;11.27;6.95;;;1.00;72.10;;;;;;5072452;28;20052;-73
2023/12/28 02:08:50;;;;;;;11.43;6.50;;;1.00;71.60;;;;;;5072722;28;20116;-71
2023/12/28 02:11:17;;;;;;;8.35;6.78;;;1.00;72.30;;;;;;5070533;28;20110;-72
2023/12/28 02:13:44;;;;;;;16.13;7.90;;;0.90;72.40;;;;;;5071791;28;20045;-71
2023/12/28 02:16:17;;;;;;;8.93;5.20;;;0.90;71.60;;;;;;5072483;28;20032;-72
2023/12/28 02:19:33;;;;;;;11.75;6.90;;;0.90;72.20;;;;;;5055701;28;20037;-72
2023/12/28 02:22:00;;;;;;;9.38;3.22;;;0.80;72.00;;;;;;5070335;28;20440;-73
2023/12/28 02:24:27;;;;;;;7.57;4.88;;;0.80;72.00;;;;;;5055719;28;20037;-72
2023/12/28 02:26:53;;;;;;;6.45;4.20;;;0.90;72.40;;;;;;5072109;28;20027;-73
2023/12/28 02:29:19;;;;;;;7.30;4.55;;;0.90;72.40;;;;;;5073879;28;20028;-73
2023/12/28 02:32:08;;;;;;;10.35;6.03;;;0.90;71.70;;;;;;5053766;28;20501;-72
2023/12/28 02:34:40;;;;;;;8.82;6.75;;;0.90;72.30;;;;;;5073646;28;20244;-73
2023/12/28 02:37:07;;;;;;;12.05;4.55;;;0.80;71.90;;;;;;5072380;28;20041;-72
2023/12/28 02:39:34;;;;;;;9.65;5.60;;;0.80;71.60;;;;;;5071133;28;20040;-72
2023/12/28 02:42:00;;;;;;;12.52;6.93;;;0.70;70.80;;;;;;5072776;28;20211;-73
2023/12/28 02:44:26;;;;;;;12.65;6.05;;;0.60;71.20;;;;;;5071927;28;20037;-72
2023/12/28 02:46:52;;;;;;;8.93;4.65;;;0.60;71.50;;;;;;5071970;28;20032;-72
2023/12/28 02:49:18;;;;;;;8.35;6.40;;;0.60;71.70;;;;;;5070834;28;20040;-73
2023/12/28 02:51:44;;;;;;;9.30;6.20;;;0.60;71.50;;;;;;5072695;28;20074;-73
2023/12/28 02:54:10;;;;;;;16.85;8.73;;;0.50;71.30;;;;;;5071823;28;20032;-73
2023/12/28 02:56:36;;;;;;;16.67;8.10;;;0.50;71.60;;;;;;5072979;28;20031;-72
2023/12/28 02:59:02;;;;;;;9.70;5.43;;;0.50;71.80;;;;;;5053565;28;20043;-73
2023/12/28 03:01:28;;;;;;;9.70;5.53;;;0.60;72.00;;;;;;5070903;28;20032;-72
2023/12/28 03:03:54;;;;;;;5.50;3.88;;;0.60;71.90;;;;;;5073021;28;20044;-72
2023/12/28 03:06:20;;;;;;;9.23;4.47;;;0.60;72.00;;;;;;5071362;28;20045;-71
2023/12/28 03:08:46;;;;;;;9.20;6.38;;;0.60;72.10;;;;;;5068443;28;20047;-73
2023/12/28 03:11:12;;;;;;;10.52;5.22;;;0.60;72.10;;;;;;5070743;28;20452;-72
2023/12/28 03:13:38;;;;;;;11.63;6.25;;;0.60;72.10;;;;;;5071322;28;20082;-72
2023/12/28 03:16:05;;;;;;;7.10;5.10;;;0.60;72.30;;;;;;5071275;28;20090;-72
2023/12/28 03:18:31;;;;;;;6.93;4.97;;;0.60;72.10;;;;;;5069598;28;20107;-73
2023/12/28 03:20:57;;;;;;;7.13;4.25;;;0.60;72.50;;;;;;5071944;28;20029;-71
2023/12/28 03:23:23;;;;;;;7.18;6.07;;;0.60;72.60;;;;;;5072543;28;20094;-72
2023/12/28 03:25:49;;;;;;;10.30;5.05;;;0.60;72.70;;;;;;5070330;28;20040;-72
2023/12/28 03:28:15;;;;;;;7.85;4.50;;;0.70;73.00;;;;;;5070753;28;20056;-72
2023/12/28 03:30:41;;;;;;;5.03;4.47;;;0.70;73.00;;;;;;5071710;28;20032;-72
2023/12/28 03:33:07;;;;;;;8.25;4.07;;;0.60;72.70;;;;;;5072517;28;20051;-73
2023/12/28 03:35:33;;;;;;;8.93;5.13;;;0.50;72.30;;;;;;5069611;28;20036;-73
2023/12/28 03:38:00;;;;;;;9.95;5.13;;;0.50;72.40;;;;;;5071066;28;20032;-72
2023/12/28 03:40:26;;;;;;;10.38;4.57;;;0.50;72.30;;;;;;5071678;28;20041;-72
2023/12/28 03:42:52;;;;;;;3.30;2.38;;;0.50;72.60;;;;;;5072232;28;20027;-72
2023/12/28 03:45:18;;;;;;;10.05;5.30;;;0.50;72.60;;;;;;5069727;28;20097;-73
2023/12/28 03:47:44;;;;;;;10.43;3.45;;;0.50;72.60;;;;;;5071187;28;20024;-72
2023/12/28 03:50:10;;;;;;;6.28;3.78;;;0.50;72.60;;;;;;5070284;28;20086;-72
2023/12/28 03:52:36;;;;;;;12.73;6.47;;;0.50;72.50;;;;;;5071596;28;20393;-72
2023/12/28 03:55:02;;;;;;;10.43;4.30;;;0.60;72.50;;;;;;5069350;28;20045;-72
2023/12/28 03:57:28;;;;;;;;;;;0.50;72.70;;;;;;5072609;28;20029;-72
2023/12/28 03:59:54;;;;;;;3.97;2.70;;;0.50;72.60;;;;;;5072393;28;20395;-72
2023/12/28 04:02:20;;;;;;;12.20;6.93;;;0.50;72.60;;;;;;5070045;28;20035;-73
2023/12/28 04:04:47;;;;;;;8.32;4.03;;;0.50;72.50;;;;;;5068896;28;20359;-72
2023/12/28 04:07:13;;;;;;;7.47;4.55;;;0.40;72.00;;;;;;5070461;28;20044;-72
2023/12/28 04:09:39;;;;;;;8.82;5.57;;;0.30;71.80;;;;;;5070838;28;20044;-72
2023/12/28 04:12:05;;;;;;;8.45;5.32;;;0.30;72.10;;;;;;5071376;28;20041;-73
2023/12/28 04:14:31;;;;;;;;;;;0.40;72.30;;;;;;5069464;28;20048;-72
2023/12/28 04:16:57;;;;;;;6.90;5.13;;;0.40;72.60;;;;;;5070660;28;20287;-72
2023/12/28 04:19:23;;;;;;;4.88;3.65;;;0.40;72.50;;;;;;5070679;28;20078;-72
2023/12/28 04:21:49;;;;;;;7.30;4.38;;;0.40;72.50;;;;;;5068720;28;20036;-71
2023/12/28 04:24:15;;;;;;;7.85;3.30;;;0.40;72.50;;;;;;5071975;28;20568;-72
2023/12/28 04:26:41;;;;;;;4.18;2.40;;;0.40;72.60;;;;;;5070505;28;20082;-72
2023/12/28 04:29:07;;;;;;;4.03;2.35;;;0.40;72.60;;;;;;5071909;28;20051;-73
2023/12/28 04:31:33;;;;;;;5.38;2.78;;;0.40;72.70;;;;;;5068457;28;20430;-72
2023/12/28 04:34:00;;;;;;;3.22;2.65;;;0.40;72.70;;;;;;5072081;28;20045;-71
2023/12/28 04:36:26;;;;;;;5.90;3.17;;;0.40;72.80;;;;;;5071609;28;20051;-73
2023/12/28 04:38:52;;;;;;;7.05;3.17;;;0.40;72.80;;;;;;5070672;28;20149;-72
2023/12/28 04:41:18;;;;;;;8.05;5.55;;;0.30;73.10;;;;;;5068643;28;20033;-72
2023/12/28 04:43:44;;;;;;;6.32;2.88;;;0.20;73.10;;;;;;5071795;28;20060;-73
2023/12/28 04:46:10;;;;;;;4.63;2.55;;;0.30;74.00;;;;;;5070027;28;20024;-72
2023/12/28 04:48:36;;;;;;;19.67;5.25;;;0.30;72.90;;;;;;5070339;28;20025;-73
2023/12/28 04:51:13;;;;;;;7.97;3.65;;;0.30;73.00;;;;;;5067588;28;20033;-72
2023/12/28 04:53:40;;;;;;;7.10;3.70;;;0.30;73.10;;;;;;5071348;28;20044;-72
2023/12/28 04:56:06;;;;;;;4.18;2.42;;;0.30;73.10;;;;;;5070119;28;20401;-73
2023/12/28 04:58:32;;;;;;;8.05;5.82;;;0.30;72.70;;;;;;5069801;28;20037;-71
2023/12/28 05:01:00;;;;;;;7.25;3.65;;;0.30;73.40;;;;;;5068988;28;20025;-71
2023/12/28 05:03:26;;;;;;;5.03;3.17;;;0.40;73.70;;;;;;5071297;28;20032;-71
2023/12/28 05:05:52;;;;;;;6.30;3.65;;;0.40;73.70;;;;;;5073574;28;20117;-72
2023/12/28 05:08:18;;;;;;;8.25;4.32;;;0.40;74.50;;;;;;5073013;28;20428;-73
2023/12/28 05:10:45;;;;;;;3.67;2.45;;;0.30;73.60;;;;;;5074492;28;20029;-72
2023/12/28 05:13:11;;;;;;;9.80;5.13;;;0.40;73.60;;;;;;5073587;28;20037;-71
2023/12/28 05:15:37;;;;;;;;;;;0.30;73.30;;;;;;5075273;28;20037;-72
2023/12/28 05:18:03;;;;;;;3.40;2.50;;;0.30;72.90;;;;;;5073812;28;20003;-72
2023/12/28 05:20:29;;;;;;;6.47;3.15;;;0.20;72.50;;;;;;5073889;28;20056;-72
2023/12/28 05:22:55;;;;;;;3.70;2.30;;;0.10;72.80;;;;;;5073775;28;20313;-73
2023/12/28 05:25:22;;;;;;;5.78;3.13;;;0.10;72.80;;;;;;5073350;28;20041;-73
2023/12/28 05:27:48;;;;;;;3.03;1.70;;;0.10;72.70;;;;;;5070641;28;20051;-72
2023/12/28 05:30:14;;;;;;;3.45;2.03;;;0.10;72.70;;;;;;5072746;28;20409;-71
2023/12/28 05:32:40;;;;;;;;;;;0.10;72.60;;;;;;5074145;28;20021;-72
2023/12/28 05:35:06;;;;;;;1.73;1.20;;;0.10;72.60;;;;;;5073362;28;19928;-73
2023/12/28 05:37:33;;;;;;;4.85;2.47;;;0.10;72.60;;;;;;5070445;28;20033;-72
2023/12/28 05:39:59;;;;;;;6.32;2.40;;;0.10;72.70;;;;;;5074749;28;20055;-72
2023/12/28 05:42:25;;;;;;;3.33;2.00;;;0.10;72.80;;;;;;5072503;28;20064;-73
2023/12/28 05:44:51;;;;;;;3.20;1.33;;;0.10;72.90;;;;;;5074847;28;20043;-72
2023/12/28 05:47:17;;;;;;;4.25;2.08;;;0.10;72.90;;;;;;5071469;28;20044;-73
2023/12/28 05:49:43;;;;;;;4.97;2.97;;;0.10;72.80;;;;;;5074835;28;20040;-72
2023/12/28 05:52:09;;;;;;;2.45;1.08;;;0.10;72.80;;;;;;5073630;28;20472;-72
2023/12/28 05:54:35;;;;;;;6.45;3.92;;;0.10;72.70;;;;;;5053760;28;20052;-71
2023/12/28 05:57:01;;;;;;;6.63;3.50;;;0.10;72.70;;;;;;5055908;28;20106;-73
2023/12/28 05:59:27;;;;;;;3.45;2.28;;;0.10;72.80;;;;;;5073002;28;20036;-71
2023/12/28 06:01:53;;;;;;;7.60;3.63;;;0.10;72.80;;;;;;5066966;28;20051;-73
2023/12/28 06:04:19;;;;;;;12.73;3.95;;;0.10;72.80;;;;;;5059916;28;20107;-73
2023/12/28 06:06:45;;;;;;;12.07;5.10;;;0.10;73.00;;;;;;5073896;28;20127;-72
2023/12/28 06:09:12;;;;;;;7.35;4.78;;;0.00;73.10;;;;;;5074248;28;20052;-73
2023/12/28 06:11:39;;;;;;;14.07;7.13;;;0.00;73.40;;;;;;5055740;28;20053;-72
2023/12/28 06:14:05;;;;;;;8.20;5.07;;;0.10;73.40;;;;;;5070648;28;20044;-73
2023/12/28 06:16:33;;;;;;;13.65;6.80;;;0.10;73.40;;;;;;5072684;28;20028;-73
2023/12/28 06:19:00;;;;;;;13.13;6.88;;;0.10;73.40;;;;;;5051312;28;20041;-73
2023/12/28 06:21:26;;;;;;;5.78;3.95;;;0.10;73.40;;;;;;5053146;28;20041;-72
2023/12/28 06:23:52;;;;;;;;;;;0.10;73.40;;;;;;5065388;28;20036;-72
2023/12/28 06:26:18;;;;;;;18.20;4.25;;;0.10;73.50;;;;;;5073580;28;20345;-73
2023/12/28 06:28:44;;;;;;;23.40;12.05;;;0.10;73.50;;;;;;5073586;28;20044;-72
2023/12/28 06:31:10;;;;;;;17.70;9.43;;;0.10;73.60;;;;;;5072846;28;20398;-73
2023/12/28 06:33:36;;;;;;;13.60;7.70;;;0.10;73.60;;;;;;5070123;28;20040;-72
2023/12/28 06:36:21;;;;;;;13.98;7.25;;;0.10;73.60;;;;;;5064595;28;20044;-71
2023/12/28 06:38:47;;;;;;;11.63;6.88;;;0.20;73.80;;;;;;5052673;28;20278;-73
2023/12/28 06:41:13;;;;;;;;;;;0.20;73.70;;;;;;5053626;28;20488;-72
2023/12/28 06:43:39;;;;;;;6.00;3.22;;;0.10;73.60;;;;;;5073000;28;19924;-73
2023/12/28 06:46:05;;;;;;;;;;;0.10;73.50;;;;;;5072271;28;20037;-72
2023/12/28 06:48:31;;;;;;;5.15;3.63;;;0.10;73.20;;;;;;5072053;28;20396;-73
2023/12/28 06:50:57;;;;;;;14.23;7.80;;;0.10;73.40;;;;;;5068186;28;20028;-72
2023/12/28 06:53:23;;;;;;;7.38;4.45;;;0.10;73.70;;;;;;5058835;28;20083;-71
2023/12/28 06:55:49;;;;;;;6.88;4.93;;;0.10;73.90;;;;;;5059262;28;20078;-72
2023/12/28 06:58:15;;;;;;;18.58;7.03;;;0.10;73.70;;;;;;5071797;28;20393;-73
2023/12/28 07:00:43;;;;;;;16.95;8.38;;;0.20;73.70;;;;;;5069494;28;20079;-73
2023/12/28 07:03:09;;;;;;;8.60;6.43;;;0.20;73.50;;;;;;5072968;28;20116;-72
2023/12/28 07:05:35;;;;;;;11.10;6.18;;;0.20;73.50;;;;;;5072443;28;20036;-73
2023/12/28 07:08:02;;;;;;;8.25;5.05;;;0.30;73.70;;;;;;5055112;28;20056;-72
2023/12/28 07:10:28;;;;;;;13.32;6.03;;;0.30;73.60;;;;;;5068817;28;20041;-73
2023/12/28 07:12:54;;;;;;;7.35;5.43;;;0.40;73.70;;;;;;5072741;28;20074;-72
2023/12/28 07:15:20;;;;;;;12.40;6.95;;;0.30;73.60;;;;;;5072532;28;20118;-72
2023/12/28 07:17:46;;;;;;;9.32;3.55;;;0.40;73.50;;;;;;5054896;28;20030;-72
2023/12/28 07:20:12;;;;;;;15.80;4.90;;;0.40;73.40;;;;;;5068840;28;20032;-72
2023/12/28 07:22:38;;;;;;;;;;;0.50;73.50;;;;;;5071978;28;20028;-73
2023/12/28 07:25:23;;;;;;;5.68;4.25;;;0.50;73.50;;;;;;5054650;28;19921;-72
2023/12/28 07:27:49;;;;;;;7.78;3.45;;;0.50;73.20;;;;;;5057443;28;20029;-74
2023/12/28 07:30:16;;;;;;;11.60;8.07;;;0.50;72.90;;;;;;5071243;28;20051;-73
2023/12/28 07:32:43;;;;;;;11.00;6.47;;;0.50;72.80;;;;;;5071304;28;20084;-73
2023/12/28 07:35:09;;;;;;;7.22;4.95;;;0.60;72.80;;;;;;5054187;28;20446;-73
2023/12/28 07:37:35;;;;;;;12.35;5.88;;;0.60;73.10;;;;;;5067906;28;20029;-73
2023/12/28 07:40:03;;;;;;;11.82;4.95;;;0.70;72.90;;;;;;5072698;28;20063;-72
2023/12/28 07:42:29;;;;;;;4.60;2.70;;;0.70;72.80;;;;;;5070758;28;20051;-73
2023/12/28 07:44:56;;;;;;;16.75;6.65;;;0.80;72.90;;;;;;5054577;28;20933;-73
2023/12/28 07:47:22;;;;;;;11.07;4.75;;;0.90;73.10;;;;;;5044216;28;20063;-72
2023/12/28 07:49:48;;;;;;;10.00;4.85;;;0.90;72.50;;;;;;5072690;28;20056;-73
2023/12/28 07:52:14;;;;;;;;;;;1.00;72.70;;;;;;5071047;28;20116;-73
2023/12/28 07:54:40;;;;;;;8.90;5.88;;;1.00;73.20;;;;;;5072324;28;19920;-72
2023/12/28 07:57:06;;;;;;;9.68;5.57;;;1.10;73.10;;;;;;5069052;28;20028;-73
2023/12/28 07:59:32;;;;;;;4.72;2.50;;;1.10;73.20;;;;;;5072151;28;20115;-73
2023/12/28 08:01:59;;;;;;;;;;;1.20;73.20;;;;;;5054673;28;20624;-73
2023/12/28 08:04:25;;;;;;;3.92;2.30;;;1.20;73.20;;;;;;5052253;28;20019;-72
2023/12/28 08:06:51;;;;;;;3.97;2.05;;;1.30;73.00;;;;;;5067310;28;20051;-72
2023/12/28 08:09:17;;;;;;;5.82;2.22;;;1.40;73.00;;;;;;5072228;28;20048;-73
2023/12/28 08:11:43;;;;;;;3.50;1.75;;;1.50;73.00;;;;;;5070225;28;20040;-72
2023/12/28 08:14:09;;;;;;;19.67;7.50;;;1.60;72.70;;;;;;5067215;28;20066;-73
2023/12/28 08:16:35;;;;;;;8.88;6.30;;;1.80;73.40;;;;;;5071615;28;20035;-73
2023/12/28 08:19:02;;;;;;;10.13;6.88;;;1.90;74.20;;;;;;5069677;28;20040;-72
2023/12/28 08:21:28;;;;;;;10.52;7.63;;;2.00;73.90;;;;;;5071342;28;20048;-73
2023/12/28 08:23:54;;;;;;;8.18;5.30;;;2.20;74.00;;;;;;5067978;28;20043;-72
2023/12/28 08:26:20;;;;;;;19.15;8.20;;;2.40;74.90;;;;;;5079315;28;20032;-72
2023/12/28 08:28:46;;;;;;;11.38;5.38;;;2.50;75.00;;;;;;5090891;28;20044;-73
2023/12/28 08:31:13;;;;;;;6.70;4.60;;;2.70;74.80;;;;;;5090145;28;20036;-72
2023/12/28 08:33:39;;;;;;;15.93;6.53;;;2.80;74.70;;;;;;5080326;28;20131;-73
2023/12/28 08:36:07;;;;;;;;;;;3.00;74.30;;;;;;5053482;28;20552;-72
2023/12/28 08:38:33;;;;;;;11.82;8.95;;;3.20;73.90;;;;;;5036974;28;20297;-73
2023/12/28 08:40:59;;;;;;;18.60;10.15;;;3.30;74.10;;;;;;5059111;28;20071;-73
2023/12/28 08:43:25;;;;;;;9.00;5.82;;;3.50;73.80;;;;;;5074143;28;20107;-73
2023/12/28 08:45:54;;;;;;;7.32;4.68;;;3.70;73.80;;;;;;5075472;28;20052;-73
2023/12/28 08:48:20;;;;;;;4.90;3.08;;;3.90;73.40;;;;;;5068852;28;20510;-73
2023/12/28 08:50:46;;;;;;;10.85;4.55;;;4.00;73.50;;;;;;5054505;28;20059;-73
2023/12/28 08:53:12;;;;;;;9.13;4.40;;;4.20;73.60;;;;;;5052770;28;20461;-72
2023/12/28 08:55:38;;;;;;;7.72;4.63;;;4.30;73.40;;;;;;5054838;28;20094;-72
2023/12/28 08:58:04;;;;;;;8.48;5.45;;;4.40;73.10;;;;;;5037558;28;20086;-72
2023/12/28 09:00:30;;;;;;;12.93;6.55;;;4.60;73.10;;;;;;5052245;28;20033;-73
2023/12/28 09:02:56;;;;;;;8.38;5.80;;;4.70;72.80;;;;;;5051742;28;20390;-72
2023/12/28 09:05:22;;;;;;;8.13;4.13;;;5.20;72.50;;;;;;5054937;28;20125;-72
2023/12/28 09:07:48;;;;;;;4.82;2.72;;;6.50;69.60;;;;;;5037467;28;20064;-72
2023/12/28 09:10:14;;;;;;;6.85;3.88;;;8.90;62.60;;;;;;5053201;28;20112;-73
2023/12/28 09:12:42;;;;;;;4.88;2.85;;;9.90;57.70;;;;;;5074037;28;20078;-73
2023/12/28 09:15:08;;;;;;;3.13;2.05;;;9.50;58.00;;;;;;5073326;28;20064;-73
2023/12/28 09:17:35;;;;;;;2.80;2.15;;;9.80;57.60;;;;;;5074840;28;20025;-72
2023/12/28 09:20:01;;;;;;;2.55;1.52;;;10.20;57.60;;;;;;5070614;28;20067;-73
2023/12/28 09:22:27;;;;;;;3.05;2.58;;;11.10;55.70;;;;;;5074846;28;20033;-73
2023/12/28 09:24:53;;;;;;;2.67;1.67;;;11.70;53.40;;;;;;5073682;28;20044;-73
2023/12/28 09:27:19;;;;;;;3.42;2.42;;;12.00;51.70;;;;;;5072796;28;20036;-72
2023/12/28 09:29:45;;;;;;;2.53;1.23;;;11.40;52.80;;;;;;5070995;28;20045;-72
2023/12/28 09:32:12;;;;;;;6.45;2.58;;;10.90;54.60;;;;;;5073762;28;20039;-72
2023/12/28 09:34:37;;;;;;;1.77;1.10;;;10.80;55.70;;;;;;5073096;28;20041;-73
2023/12/28 09:37:04;;;;;;;7.18;2.30;;;11.20;54.40;;;;;;5074533;28;20040;-72
2023/12/28 09:39:30;;;;;;;;;;;11.20;54.30;;;;;;5072258;28;20044;-73
2023/12/28 09:42:02;;;;;;;3.08;1.40;;;11.10;55.80;;;;;;5072284;28;20015;-72
2023/12/28 09:44:30;;;;;;;3.33;1.70;;;11.30;54.20;;;;;;5069997;28;20041;-72
2023/12/28 09:46:57;;;;;;;2.65;1.30;;;11.80;53.80;;;;;;5053355;28;20029;-72
2023/12/28 09:49:24;;;;;;;6.20;2.75;;;12.50;51.40;;;;;;5069985;28;20085;-73
2023/12/28 09:51:50;;;;;;;;;;;12.70;49.80;;;;;;5072976;28;20036;-73
2023/12/28 09:54:18;;;;;;;3.33;2.55;;;12.70;49.90;;;;;;5073038;28;19958;-72
2023/12/28 09:56:45;;;;;;;3.45;2.15;;;12.20;50.70;;;;;;5071794;28;20090;-72
2023/12/28 09:59:11;;;;;;;3.53;1.45;;;12.30;50.60;;;;;;5053469;28;20037;-73
2023/12/28 10:01:37;;;;;;;4.35;2.75;;;12.30;51.30;;;;;;5052189;28;20032;-73
2023/12/28 10:04:04;;;;;;;2.03;1.42;;;12.40;50.60;;;;;;5035588;28;20410;-72
2023/12/28 10:06:30;;;;;;;0.90;0.75;;;12.40;51.30;;;;;;5040549;28;20040;-72
2023/12/28 10:08:56;;;;;;;2.85;1.35;;;13.10;50.70;;;;;;5072746;28;20048;-72
2023/12/28 10:11:23;;;;;;;3.25;1.98;;;14.30;47.80;;;;;;5072401;28;20036;-72
2023/12/28 10:13:49;;;;;;;1.90;1.35;;;14.60;45.40;;;;;;5072627;28;20036;-72
2023/12/28 10:16:16;;;;;;;;;;;14.30;46.50;;;;;;5069677;28;20052;-73
2023/12/28 10:18:43;;;;;;;2.57;0.97;;;14.50;46.80;;;;;;5053785;28;19935;-72
2023/12/28 10:21:10;;;;;;;1.80;0.68;;;15.50;45.10;;;;;;5052175;28;20083;-73
2023/12/28 10:23:36;;;;;;;0.85;0.57;;;15.70;42.70;;;;;;5053692;28;20049;-73
2023/12/28 10:26:04;;;;;;;0.20;0.20;;;15.40;40.70;;;;;;5064085;28;20039;-72
2023/12/28 10:28:38;;;;;;;0.20;0.20;;;15.30;41.80;;;;;;5055754;28;20064;-72
2023/12/28 10:31:04;;;;;;;0.25;0.22;;;15.40;40.60;;;;;;5071839;28;20115;-72
2023/12/28 10:33:49;;;;;;;0.15;0.15;;;15.00;40.80;;;;;;5069531;28;20120;-71
2023/12/28 10:36:16;;;;;;;0.47;0.32;;;15.00;41.20;;;;;;5072822;28;20496;-72
2023/12/28 10:38:45;;;;;;;0.88;0.65;;;14.70;42.80;;;;;;5052482;28;20036;-72
2023/12/28 10:41:13;;;;;;;1.25;0.57;;;14.90;42.60;;;;;;5054682;28;20033;-73
2023/12/28 10:44:17;;;;;;;1.63;1.42;;;15.20;40.70;;;;;;5071989;28;20067;-73
2023/12/28 10:46:45;;;;;;;0.10;0.10;;;14.90;41.00;;;;;;5068958;28;20033;-72
2023/12/28 10:49:14;;;;;;;0.28;0.17;;;15.00;41.70;;;;;;5071818;28;20041;-71
2023/12/28 10:51:45;;;;;;;0.20;0.20;;;14.80;41.40;;;;;;5057247;28;20033;-73
2023/12/28 10:55:08;;;;;;;0.10;0.10;;;15.20;40.90;;;;;;5065640;28;20028;-72
2023/12/28 10:58:19;;;;;;;0.20;0.20;;;16.40;38.70;;;;;;5068914;28;20111;-73
2023/12/28 11:00:54;;;;;;;0.32;0.20;;;15.90;38.30;;;;;;5071645;28;20397;-73
2023/12/28 11:03:30;;;;;;;0.10;0.10;;;16.20;38.40;;;;;;5071887;28;20074;-71
2023/12/28 11:05:58;;;;;;;1.20;0.50;;;17.50;35.80;;;;;;5052172;28;20032;-72
2023/12/28 11:08:24;;;;;;;1.02;0.63;;;18.30;34.40;;;;;;5059776;28;20029;-72
2023/12/28 11:10:51;;;;;;;0.55;0.20;;;18.20;33.60;;;;;;5052111;28;20037;-71
2023/12/28 11:13:21;;;;;;;0.75;0.40;;;17.90;33.60;;;;;;5051611;28;20544;-72
2023/12/28 11:15:50;;;;;;;0.13;0.13;;;17.10;35.90;;;;;;5061532;28;20064;-72
2023/12/28 11:18:18;;;;;;;0.25;0.20;;;16.60;35.90;;;;;;5055029;28;20048;-72
2023/12/28 11:20:45;;;;;;;0.50;0.30;;;17.10;35.70;;;;;;5070631;28;20116;-73
2023/12/28 11:23:12;;;;;;;0.35;0.32;;;16.80;34.90;;;;;;5071172;28;20399;-72
2023/12/28 11:25:38;;;;;;;1.50;0.73;;;16.20;36.80;;;;;;5049874;28;20036;-73
2023/12/28 11:28:24;;;;;;;7.70;0.90;;;16.10;37.90;;;;;;5072690;28;20017;-73
2023/12/28 11:30:51;;;;;;;0.65;0.28;;;16.30;37.30;;;;;;5053707;28;20029;-72
2023/12/28 11:33:18;;;;;;;0.70;0.70;;;17.10;36.10;;;;;;5068697;28;20460;-71
2023/12/28 11:35:47;;;;;;;0.93;0.15;;;17.00;34.50;;;;;;5072231;28;20051;-73
2023/12/28 11:38:16;;;;;;;0.98;0.65;;;16.40;36.70;;;;;;5072432;28;20029;-73
2023/12/28 11:40:48;;;;;;;0.52;0.13;;;15.90;38.30;;;;;;5070632;28;20038;-71
2023/12/28 11:43:35;;;;;;;0.15;0.15;;;15.50;38.50;;;;;;5066639;28;20043;-72
2023/12/28 11:46:05;;;;;;;0.20;0.20;;;15.80;38.10;;;;;;5070823;28;20029;-72
2023/12/28 11:48:31;;;;;;;0.20;0.10;;;17.20;36.30;;;;;;5071217;28;20068;-71
2023/12/28 11:50:59;;;;;;;0.30;0.10;;;17.20;34.80;;;;;;5070265;28;20036;-73
2023/12/28 11:53:27;;;;;;;0.17;0.17;;;16.20;35.90;;;;;;5069516;28;20040;-73
2023/12/28 11:56:04;;;;;;;1.95;0.40;;;15.70;38.10;;;;;;5070480;28;20031;-73
2023/12/28 11:58:31;;;;;;;0.10;0.10;;;15.80;37.90;;;;;;5066442;28;20460;-71
2023/12/28 12:00:57;;;;;;;;;;;17.40;35.30;;;;;;5050558;28;20562;-72
2023/12/28 12:03:26;;;;;;;0.70;0.45;;;17.80;32.70;;;;;;5069087;28;20328;-72
2023/12/28 12:05:54;;;;;;;1.23;0.25;;;17.70;32.00;;;;;;5071750;28;20052;-72
2023/12/28 12:08:20;;;;;;;0.85;0.75;;;17.30;34.30;;;;;;5071029;28;20418;-72
2023/12/28 12:10:46;;;;;;;1.38;0.38;;;16.80;34.70;;;;;;5067911;28;20048;-72
2023/12/28 12:13:14;;;;;;;0.28;0.28;;;16.30;36.80;;;;;;5074250;28;20033;-73
2023/12/28 12:15:40;;;;;;;0.20;0.20;;;16.20;36.10;;;;;;5068800;28;20490;-72
2023/12/28 12:18:06;;;;;;;1.02;0.43;;;15.70;37.50;;;;;;5055853;28;20036;-73
2023/12/28 12:20:33;;;;;;;0.85;0.55;;;15.30;38.80;;;;;;5061746;28;20071;-73
2023/12/28 12:23:00;;;;;;;0.20;0.20;;;15.20;38.90;;;;;;5074772;28;20033;-71
2023/12/28 12:25:27;;;;;;;0.65;0.17;;;15.70;39.20;;;;;;5075770;28;20036;-71
2023/12/28 12:27:53;;;;;;;1.05;0.60;;;15.40;38.30;;;;;;5058161;28;20116;-73
2023/12/28 12:30:19;;;;;;;;;;;15.10;39.80;;;;;;5072788;28;20037;-70
2023/12/28 12:32:46;;;;;;;0.85;0.43;;;15.00;38.70;;;;;;5068173;28;19921;-73
2023/12/28 12:35:14;;;;;;;0.45;0.20;;;15.00;39.40;;;;;;5054399;28;20044;-72
2023/12/28 12:37:41;;;;;;;2.28;0.68;;;14.90;39.10;;;;;;5055776;28;20025;-71
2023/12/28 12:40:08;;;;;;;0.20;0.17;;;15.00;38.60;;;;;;5069718;28;20032;-71
2023/12/28 12:42:34;;;;;;;0.10;0.10;;;15.20;38.90;;;;;;5074293;28;20240;-71
2023/12/28 12:45:01;;;;;;;;;;;15.30;37.40;;;;;;5076464;28;20448;-71
2023/12/28 12:47:34;;;;;;;0.30;0.30;;;15.40;37.70;;;;;;5073179;28;19912;-71
2023/12/28 12:50:01;;;;;;;0.30;0.30;;;15.70;37.90;;;;;;5077963;28;20591;-69
2023/12/28 12:52:27;;;;;;;1.60;1.38;;;15.90;37.00;;;;;;5054872;28;20045;-71
2023/12/28 12:55:12;;;;;;;0.47;0.43;;;15.80;37.40;;;;;;5073022;28;20036;-71
2023/12/28 12:57:55;;;;;;;4.50;0.60;;;16.40;36.80;;;;;;5072722;28;20489;-69
2023/12/28 13:00:22;;;;;;;0.47;0.45;;;16.80;34.80;;;;;;5074281;28;20083;-70